createdAt,value
2018-03-22T00:01:39.860Z,998.25
2018-03-22T00:02:39.822Z,998.24
2018-03-22T00:04:36.704Z,998.20
2018-03-22T00:05:36.637Z,998.17
2018-03-22T00:07:30.995Z,998.16
2018-03-22T00:08:30.953Z,998.18
2018-03-22T00:10:25.336Z,998.17
2018-03-22T00:11:25.270Z,998.19
2018-03-22T00:13:18.666Z,998.18
2018-03-22T00:14:18.584Z,998.22
2018-03-22T00:16:12.949Z,998.18
2018-03-22T00:17:12.907Z,998.20
2018-03-22T00:19:09.749Z,998.21
2018-03-22T00:20:09.708Z,998.20
2018-03-22T00:22:03.057Z,998.16
2018-03-22T00:23:03.017Z,998.13
2018-03-22T00:24:58.905Z,998.20
2018-03-22T00:25:58.855Z,998.16
2018-03-22T00:27:55.714Z,998.11
2018-03-22T00:28:55.677Z,998.12
2018-03-22T00:30:49.021Z,998.12
2018-03-22T00:31:48.977Z,998.11
2018-03-22T00:33:42.380Z,998.09
2018-03-22T00:34:42.322Z,998.05
2018-03-22T00:36:35.701Z,998.04
2018-03-22T00:37:35.662Z,997.98
2018-03-22T00:39:29.014Z,998.00
2018-03-22T00:40:28.976Z,998.01
2018-03-22T00:42:24.825Z,998.00
2018-03-22T00:43:24.776Z,997.99
2018-03-22T00:45:19.137Z,997.99
2018-03-22T00:46:19.090Z,997.99
2018-03-22T00:48:15.945Z,997.99
2018-03-22T00:49:15.898Z,997.96
2018-03-22T00:51:09.280Z,997.96
2018-03-22T00:52:09.209Z,997.91
2018-03-22T00:54:05.057Z,997.90
2018-03-22T00:55:05.021Z,997.88
2018-03-22T00:56:59.405Z,997.81
2018-03-22T00:57:59.342Z,997.83
2018-03-22T00:59:53.700Z,997.77
2018-03-22T01:00:53.647Z,997.77
2018-03-22T01:02:48.015Z,997.71
2018-03-22T01:03:47.967Z,997.70
2018-03-22T01:05:44.829Z,997.64
2018-03-22T01:06:44.790Z,997.66
2018-03-22T01:08:41.649Z,997.68
2018-03-22T01:09:41.600Z,997.64
2018-03-22T01:11:35.964Z,997.61
2018-03-22T01:12:35.922Z,997.57
2018-03-22T01:14:30.277Z,997.54
2018-03-22T01:15:30.232Z,997.53
2018-03-22T01:17:24.595Z,997.51
2018-03-22T01:18:24.549Z,997.50
2018-03-22T01:20:21.492Z,997.48
2018-03-22T01:21:21.459Z,997.46
2018-03-22T01:23:15.772Z,997.42
2018-03-22T01:24:15.727Z,997.37
2018-03-22T01:26:10.088Z,997.37
2018-03-22T01:27:10.037Z,997.35
2018-03-22T01:29:06.904Z,997.32
2018-03-22T01:30:06.852Z,997.33
2018-03-22T01:32:01.208Z,997.34
2018-03-22T01:33:01.164Z,997.31
2018-03-22T01:34:57.024Z,997.29
2018-03-22T01:35:56.981Z,997.30
2018-03-22T01:37:51.336Z,997.32
2018-03-22T01:38:51.293Z,997.27
2018-03-22T01:40:45.648Z,997.27
2018-03-22T01:41:45.596Z,997.23
2018-03-22T01:43:40.754Z,997.16
2018-03-22T01:44:40.720Z,997.15
2018-03-22T01:46:35.082Z,997.11
2018-03-22T01:47:35.025Z,997.07
2018-03-22T01:49:31.879Z,997.05
2018-03-22T01:50:31.836Z,997.03
2018-03-22T01:52:26.199Z,996.99
2018-03-22T01:53:26.152Z,996.98
2018-03-22T01:55:20.509Z,996.92
2018-03-22T01:56:20.454Z,996.92
2018-03-22T01:58:17.313Z,996.85
2018-03-22T01:59:17.273Z,996.88
2018-03-22T02:01:14.134Z,996.85
2018-03-22T02:02:14.089Z,996.81
2018-03-22T02:04:08.447Z,996.77
2018-03-22T02:05:08.401Z,996.74
2018-03-22T02:07:01.775Z,996.71
2018-03-22T02:08:01.731Z,996.72
2018-03-22T02:09:55.088Z,996.71
2018-03-22T02:10:55.046Z,996.65
2018-03-22T02:12:51.914Z,996.67
2018-03-22T02:13:51.867Z,996.67
2018-03-22T02:15:46.221Z,996.59
2018-03-22T02:16:46.180Z,996.54
2018-03-22T02:18:43.041Z,996.44
2018-03-22T02:19:42.997Z,996.43
2018-03-22T02:21:37.366Z,996.44
2018-03-22T02:22:37.319Z,996.39
2018-03-22T02:24:31.700Z,996.36
2018-03-22T02:25:31.665Z,996.36
2018-03-22T02:27:28.538Z,996.34
2018-03-22T02:28:28.483Z,996.37
2018-03-22T02:30:22.853Z,996.38
2018-03-22T02:31:22.802Z,996.43
2018-03-22T02:33:17.163Z,996.40
2018-03-22T02:34:17.130Z,996.41
2018-03-22T02:36:13.979Z,996.38
2018-03-22T02:37:13.938Z,996.35
2018-03-22T02:39:08.297Z,996.27
2018-03-22T02:40:08.268Z,996.21
2018-03-22T02:42:05.120Z,996.24
2018-03-22T02:43:05.075Z,996.25
2018-03-22T02:44:59.454Z,996.22
2018-03-22T02:45:59.420Z,996.23
2018-03-22T02:47:53.766Z,996.13
2018-03-22T02:48:53.737Z,996.17
2018-03-22T02:50:48.147Z,996.12
2018-03-22T02:51:48.080Z,996.04
2018-03-22T02:53:42.444Z,996.06
2018-03-22T02:54:42.395Z,995.99
2018-03-22T02:56:36.757Z,996.01
2018-03-22T02:57:36.764Z,995.98
2018-03-22T02:59:33.649Z,995.96
2018-03-22T03:00:33.605Z,995.91
2018-03-22T03:02:27.945Z,995.92
2018-03-22T03:03:27.899Z,995.92
2018-03-22T03:05:24.780Z,995.89
2018-03-22T03:06:24.722Z,995.90
2018-03-22T03:08:19.072Z,995.89
2018-03-22T03:09:19.030Z,995.85
2018-03-22T03:11:15.963Z,995.87
2018-03-22T03:12:15.846Z,995.79
2018-03-22T03:14:10.208Z,995.76
2018-03-22T03:15:10.156Z,995.70
2018-03-22T03:17:07.029Z,995.64
2018-03-22T03:18:06.974Z,995.65
2018-03-22T03:20:01.332Z,995.57
2018-03-22T03:21:01.287Z,995.54
2018-03-22T03:22:58.153Z,995.51
2018-03-22T03:23:58.099Z,995.50
2018-03-22T03:25:52.476Z,995.44
2018-03-22T03:26:52.411Z,995.43
2018-03-22T03:28:49.262Z,995.39
2018-03-22T03:29:49.220Z,995.41
2018-03-22T03:31:46.088Z,995.37
2018-03-22T03:32:46.050Z,995.35
2018-03-22T03:34:40.405Z,995.27
2018-03-22T03:35:40.362Z,995.29
2018-03-22T03:37:34.769Z,995.21
2018-03-22T03:38:34.731Z,995.16
2018-03-22T03:40:29.092Z,995.13
2018-03-22T03:41:29.042Z,995.15
2018-03-22T03:43:23.402Z,995.14
2018-03-22T03:44:23.352Z,995.11
2018-03-22T03:46:16.747Z,995.08
2018-03-22T03:47:16.667Z,995.09
2018-03-22T03:49:11.020Z,995.02
2018-03-22T03:50:10.977Z,995.01
2018-03-22T03:52:05.338Z,995.06
2018-03-22T03:53:05.294Z,995.02
2018-03-22T03:54:59.657Z,995.02
2018-03-22T03:55:59.613Z,995.01
2018-03-22T03:57:53.990Z,995.01
2018-03-22T03:58:53.945Z,995.00
2018-03-22T04:00:48.280Z,994.99
2018-03-22T04:01:48.237Z,994.96
2018-03-22T04:03:45.114Z,994.91
2018-03-22T04:04:45.064Z,994.95
2018-03-22T04:06:39.419Z,994.91
2018-03-22T04:07:39.382Z,994.98
2018-03-22T04:09:33.747Z,994.91
2018-03-22T04:10:33.694Z,994.95
2018-03-22T04:12:29.532Z,994.95
2018-03-22T04:13:29.502Z,994.86
2018-03-22T04:15:23.841Z,994.84
2018-03-22T04:16:23.808Z,994.83
2018-03-22T04:18:17.174Z,994.77
2018-03-22T04:19:17.108Z,994.71
2018-03-22T04:21:11.470Z,994.63
2018-03-22T04:22:11.429Z,994.62
2018-03-22T04:24:07.288Z,994.59
2018-03-22T04:25:07.247Z,994.54
2018-03-22T04:27:01.612Z,994.56
2018-03-22T04:28:01.571Z,994.56
2018-03-22T04:29:58.432Z,994.54
2018-03-22T04:30:58.386Z,994.57
2018-03-22T04:32:55.245Z,994.55
2018-03-22T04:33:55.200Z,994.52
2018-03-22T04:35:48.566Z,994.48
2018-03-22T04:36:48.498Z,994.45
2018-03-22T04:38:45.353Z,994.42
2018-03-22T04:39:45.316Z,994.42
2018-03-22T04:41:39.665Z,994.33
2018-03-22T04:42:39.625Z,994.31
2018-03-22T04:44:34.008Z,994.28
2018-03-22T04:45:33.967Z,994.27
2018-03-22T04:47:27.316Z,994.26
2018-03-22T04:48:27.280Z,994.23
2018-03-22T04:50:21.664Z,994.24
2018-03-22T04:51:21.597Z,994.23
2018-03-22T04:53:17.448Z,994.20
2018-03-22T04:54:17.404Z,994.21
2018-03-22T04:56:11.753Z,994.21
2018-03-22T04:57:11.712Z,994.17
2018-03-22T04:59:06.071Z,994.12
2018-03-22T05:00:06.027Z,994.11
2018-03-22T05:01:59.404Z,994.09
2018-03-22T05:02:59.362Z,994.06
2018-03-22T05:04:53.713Z,994.09
2018-03-22T05:05:53.668Z,994.07
2018-03-22T05:07:50.535Z,994.07
2018-03-22T05:08:50.488Z,994.06
2018-03-22T05:10:44.847Z,994.00
2018-03-22T05:11:44.802Z,994.01
2018-03-22T05:13:39.199Z,993.93
2018-03-22T05:14:39.115Z,993.95
2018-03-22T05:16:35.320Z,993.92
2018-03-22T05:17:35.263Z,993.88
2018-03-22T05:19:30.424Z,993.89
2018-03-22T05:20:30.376Z,993.88
2018-03-22T05:22:27.249Z,993.83
2018-03-22T05:23:27.192Z,993.81
2018-03-22T05:25:24.081Z,993.73
2018-03-22T05:26:24.033Z,993.78
2018-03-22T05:28:18.420Z,993.75
2018-03-22T05:29:18.369Z,993.79
2018-03-22T05:31:12.728Z,993.71
2018-03-22T05:32:12.684Z,993.70
2018-03-22T05:34:07.060Z,993.72
2018-03-22T05:35:07.000Z,993.67
2018-03-22T05:37:01.358Z,993.65
2018-03-22T05:38:01.314Z,993.67
2018-03-22T05:39:58.162Z,993.71
2018-03-22T05:40:58.117Z,993.65
2018-03-22T05:42:52.471Z,993.64
2018-03-22T05:43:52.427Z,993.60
2018-03-22T05:45:49.285Z,993.57
2018-03-22T05:46:49.284Z,993.58
2018-03-22T05:48:43.604Z,993.52
2018-03-22T05:49:43.557Z,993.48
2018-03-22T05:51:40.436Z,993.48
2018-03-22T05:52:40.371Z,993.47
2018-03-22T05:54:34.730Z,993.47
2018-03-22T05:55:34.685Z,993.49
2018-03-22T05:57:28.922Z,993.50
2018-03-22T05:58:28.879Z,993.46
2018-03-22T06:00:23.312Z,993.46
2018-03-22T06:01:23.232Z,993.43
2018-03-22T06:03:17.578Z,993.47
2018-03-22T06:04:17.620Z,993.44
2018-03-22T06:06:11.899Z,993.36
2018-03-22T06:07:11.849Z,993.34
2018-03-22T06:09:07.087Z,993.34
2018-03-22T06:10:07.028Z,993.33
2018-03-22T06:12:00.427Z,993.35
2018-03-22T06:13:00.382Z,993.37
2018-03-22T06:14:56.437Z,993.39
2018-03-22T06:15:56.393Z,993.44
2018-03-22T06:17:49.789Z,993.34
2018-03-22T06:18:49.748Z,993.28
2018-03-22T06:20:45.628Z,993.31
2018-03-22T06:21:45.578Z,993.29
2018-03-22T06:23:39.937Z,993.12
2018-03-22T06:24:39.895Z,993.07
2018-03-22T06:26:34.265Z,993.10
2018-03-22T06:27:34.217Z,993.06
2018-03-22T06:29:31.948Z,993.03
2018-03-22T06:30:31.898Z,993.02
2018-03-22T06:32:29.667Z,993.00
2018-03-22T06:33:29.596Z,993.01
2018-03-22T06:35:23.953Z,992.90
2018-03-22T06:36:23.915Z,992.83
2018-03-22T06:38:20.772Z,992.88
2018-03-22T06:39:20.730Z,992.92
2018-03-22T06:41:15.092Z,992.98
2018-03-22T06:42:15.063Z,992.93
2018-03-22T06:44:09.440Z,992.89
2018-03-22T06:45:09.379Z,992.85
2018-03-22T06:47:03.735Z,992.82
2018-03-22T06:48:03.673Z,992.93
2018-03-22T06:49:58.028Z,992.85
2018-03-22T06:50:57.981Z,992.81
2018-03-22T06:52:54.877Z,992.86
2018-03-22T06:53:54.800Z,992.90
2018-03-22T06:55:49.158Z,992.83
2018-03-22T06:56:49.114Z,992.90
2018-03-22T06:58:43.494Z,992.89
2018-03-22T06:59:43.484Z,992.83
2018-03-22T07:01:40.284Z,992.87
2018-03-22T07:02:40.239Z,992.82
2018-03-22T07:04:34.612Z,992.68
2018-03-22T07:05:34.557Z,992.57
2018-03-22T07:07:28.912Z,992.64
2018-03-22T07:08:28.869Z,992.45
2018-03-22T07:10:25.726Z,992.45
2018-03-22T07:11:25.681Z,992.33
2018-03-22T07:13:19.545Z,992.37
2018-03-22T07:14:19.546Z,992.39
2018-03-22T07:16:14.893Z,992.37
2018-03-22T07:17:14.816Z,992.40
2018-03-22T07:19:12.468Z,992.38
2018-03-22T07:20:12.430Z,992.44
2018-03-22T07:22:06.796Z,992.46
2018-03-22T07:23:06.739Z,992.33
2018-03-22T07:25:03.658Z,992.29
2018-03-22T07:26:03.582Z,992.30
2018-03-22T07:28:00.436Z,992.27
2018-03-22T07:29:00.390Z,992.28
2018-03-22T07:30:54.747Z,992.26
2018-03-22T07:31:54.706Z,992.17
2018-03-22T07:33:49.055Z,992.20
2018-03-22T07:34:49.012Z,992.18
2018-03-22T07:36:45.918Z,992.15
2018-03-22T07:37:45.836Z,992.21
2018-03-22T07:39:40.190Z,992.09
2018-03-22T07:40:40.141Z,992.11
2018-03-22T07:42:37.016Z,992.16
2018-03-22T07:43:36.953Z,992.10
2018-03-22T07:45:31.318Z,992.04
2018-03-22T07:46:31.278Z,992.04
2018-03-22T07:48:28.129Z,991.95
2018-03-22T07:49:28.088Z,991.98
2018-03-22T07:51:24.942Z,991.91
2018-03-22T07:52:24.895Z,991.89
2018-03-22T07:54:21.794Z,991.84
2018-03-22T07:55:21.751Z,991.82
2018-03-22T07:57:16.108Z,991.92
2018-03-22T07:58:16.059Z,991.87
2018-03-22T08:00:10.426Z,991.88
2018-03-22T08:01:10.375Z,991.88
2018-03-22T08:03:04.767Z,991.89
2018-03-22T08:04:04.701Z,991.80
2018-03-22T08:05:59.065Z,991.76
2018-03-22T08:06:59.013Z,991.82
2018-03-22T08:08:53.372Z,991.77
2018-03-22T08:09:53.326Z,991.79
2018-03-22T08:11:50.199Z,991.71
2018-03-22T08:12:50.147Z,991.77
2018-03-22T08:14:47.860Z,991.64
2018-03-22T08:15:47.815Z,991.71
2018-03-22T08:17:44.677Z,991.65
2018-03-22T08:18:44.634Z,991.66
2018-03-22T08:20:38.996Z,991.61
2018-03-22T08:21:38.944Z,991.59
2018-03-22T08:23:33.315Z,991.56
2018-03-22T08:24:33.275Z,991.53
2018-03-22T08:26:30.134Z,991.47
2018-03-22T08:27:30.097Z,991.41
2018-03-22T08:29:24.453Z,991.35
2018-03-22T08:30:24.411Z,991.38
2018-03-22T08:32:21.273Z,991.33
2018-03-22T08:33:21.226Z,991.27
2018-03-22T08:35:15.582Z,991.27
2018-03-22T08:36:15.553Z,991.29
2018-03-22T08:38:09.924Z,991.24
2018-03-22T08:39:09.859Z,991.27
2018-03-22T08:41:04.231Z,991.22
2018-03-22T08:42:04.181Z,991.16
2018-03-22T08:43:58.540Z,991.23
2018-03-22T08:44:58.494Z,991.23
2018-03-22T08:46:52.861Z,991.18
2018-03-22T08:47:52.810Z,991.08
2018-03-22T08:49:49.705Z,991.10
2018-03-22T08:50:49.628Z,991.16
2018-03-22T08:52:44.008Z,991.12
2018-03-22T08:53:43.965Z,991.06
2018-03-22T08:55:38.373Z,991.00
2018-03-22T08:56:38.279Z,991.02
2018-03-22T08:58:32.648Z,991.00
2018-03-22T08:59:32.599Z,991.00
2018-03-22T09:01:29.465Z,991.01
2018-03-22T09:02:29.416Z,991.01
2018-03-22T09:04:26.293Z,990.91
2018-03-22T09:05:26.228Z,990.89
2018-03-22T09:07:23.082Z,990.84
2018-03-22T09:08:23.037Z,990.92
2018-03-22T09:10:19.918Z,990.80
2018-03-22T09:11:19.889Z,990.89
2018-03-22T09:13:14.213Z,990.76
2018-03-22T09:14:14.237Z,990.87
2018-03-22T09:16:11.063Z,990.76
2018-03-22T09:17:10.978Z,990.58
2018-03-22T09:19:05.333Z,990.65
2018-03-22T09:20:05.292Z,990.65
2018-03-22T09:21:59.661Z,990.59
2018-03-22T09:22:59.606Z,990.51
2018-03-22T09:24:56.465Z,990.49
2018-03-22T09:25:56.425Z,990.49
2018-03-22T09:27:50.808Z,990.50
2018-03-22T09:28:50.757Z,990.48
2018-03-22T09:30:45.120Z,990.40
2018-03-22T09:31:45.076Z,990.43
2018-03-22T09:33:40.284Z,990.37
2018-03-22T09:34:40.239Z,990.40
2018-03-22T09:36:34.602Z,990.44
2018-03-22T09:37:34.559Z,990.33
2018-03-22T09:39:28.908Z,990.44
2018-03-22T09:40:28.860Z,990.38
2018-03-22T09:42:25.799Z,990.32
2018-03-22T09:43:25.678Z,990.27
2018-03-22T09:45:22.532Z,990.20
2018-03-22T09:46:22.491Z,990.19
2018-03-22T09:48:19.353Z,990.21
2018-03-22T09:49:19.309Z,990.16
2018-03-22T09:51:16.164Z,990.16
2018-03-22T09:52:16.113Z,990.13
2018-03-22T09:54:13.029Z,990.02
2018-03-22T09:55:12.932Z,990.04
2018-03-22T09:57:07.291Z,989.99
2018-03-22T09:58:07.246Z,990.01
2018-03-22T10:00:01.609Z,989.95
2018-03-22T10:01:01.558Z,990.01
2018-03-22T10:02:58.414Z,989.98
2018-03-22T10:03:58.367Z,989.92
2018-03-22T10:05:52.741Z,989.90
2018-03-22T10:06:52.687Z,989.92
2018-03-22T10:08:47.048Z,989.86
2018-03-22T10:09:47.011Z,989.78
2018-03-22T10:11:41.370Z,989.90
2018-03-22T10:12:41.316Z,989.75
2018-03-22T10:14:35.683Z,989.70
2018-03-22T10:15:35.632Z,989.74
2018-03-22T10:17:32.495Z,989.77
2018-03-22T10:18:32.451Z,989.68
2018-03-22T10:20:29.338Z,989.63
2018-03-22T10:21:29.281Z,989.70
2018-03-22T10:23:23.210Z,989.62
2018-03-22T10:24:23.098Z,989.57
2018-03-22T10:26:19.959Z,989.55
2018-03-22T10:27:19.917Z,989.50
2018-03-22T10:29:16.807Z,989.51
2018-03-22T10:30:16.741Z,989.49
2018-03-22T10:32:13.602Z,989.41
2018-03-22T10:33:13.559Z,989.45
2018-03-22T10:35:10.426Z,989.57
2018-03-22T10:36:10.376Z,989.38
2018-03-22T10:38:04.758Z,989.52
2018-03-22T10:39:04.697Z,989.49
2018-03-22T10:40:59.881Z,989.36
2018-03-22T10:41:59.884Z,989.30
2018-03-22T10:43:54.203Z,989.28
2018-03-22T10:44:54.184Z,989.35
2018-03-22T10:46:51.039Z,989.33
2018-03-22T10:47:50.978Z,989.36
2018-03-22T10:49:47.877Z,989.40
2018-03-22T10:50:47.793Z,989.23
2018-03-22T10:52:53.832Z,989.26
2018-03-22T10:53:53.847Z,989.24
2018-03-22T10:55:48.217Z,989.21
2018-03-22T10:56:48.104Z,989.28
2018-03-22T10:58:42.464Z,989.30
2018-03-22T10:59:42.419Z,989.32
2018-03-22T11:01:36.781Z,989.24
2018-03-22T11:02:36.736Z,989.30
2018-03-22T11:04:31.103Z,989.27
2018-03-22T11:05:31.061Z,989.28
2018-03-22T11:07:27.916Z,989.30
2018-03-22T11:08:27.875Z,989.41
2018-03-22T11:10:24.755Z,989.23
2018-03-22T11:11:24.712Z,989.28
2018-03-22T11:13:19.063Z,989.21
2018-03-22T11:14:19.013Z,989.25
2018-03-22T11:16:13.384Z,989.38
2018-03-22T11:17:13.339Z,989.17
2018-03-22T11:19:10.191Z,989.32
2018-03-22T11:20:10.147Z,989.15
2018-03-22T11:22:07.008Z,989.14
2018-03-22T11:23:06.973Z,989.14
2018-03-22T11:25:03.847Z,989.10
2018-03-22T11:26:03.794Z,989.10
2018-03-22T11:27:58.165Z,989.07
2018-03-22T11:28:58.120Z,989.10
2018-03-22T11:30:52.508Z,989.05
2018-03-22T11:31:52.432Z,989.04
2018-03-22T11:33:46.809Z,989.06
2018-03-22T11:34:46.770Z,989.06
2018-03-22T11:36:41.168Z,989.00
2018-03-22T11:37:41.122Z,988.98
2018-03-22T11:39:37.986Z,988.98
2018-03-22T11:40:37.939Z,988.93
2018-03-22T11:42:34.808Z,988.99
2018-03-22T11:43:34.776Z,988.90
2018-03-22T11:45:29.121Z,988.91
2018-03-22T11:46:29.067Z,988.88
2018-03-22T11:48:23.445Z,989.09
2018-03-22T11:49:23.395Z,988.99
2018-03-22T11:51:17.793Z,988.96
2018-03-22T11:52:17.706Z,989.05
2018-03-22T11:54:14.574Z,989.02
2018-03-22T11:55:14.532Z,989.00
2018-03-22T11:57:12.270Z,988.89
2018-03-22T11:58:12.232Z,988.98
2018-03-22T12:00:09.089Z,988.98
2018-03-22T12:01:09.047Z,988.90
2018-03-22T12:03:03.435Z,988.91
2018-03-22T12:04:03.350Z,988.87
2018-03-22T12:06:00.290Z,988.84
2018-03-22T12:07:00.163Z,988.81
2018-03-22T12:08:57.064Z,988.81
2018-03-22T12:09:56.979Z,988.76
2018-03-22T12:11:53.849Z,988.78
2018-03-22T12:12:53.802Z,988.85
2018-03-22T12:14:50.679Z,988.76
2018-03-22T12:15:50.620Z,988.77
2018-03-22T12:17:47.503Z,988.72
2018-03-22T12:18:47.454Z,988.71
2018-03-22T12:20:44.321Z,988.68
2018-03-22T12:21:44.313Z,988.73
2018-03-22T12:23:42.005Z,988.68
2018-03-22T12:24:41.962Z,988.60
2018-03-22T12:26:39.703Z,988.56
2018-03-22T12:27:39.661Z,988.61
2018-03-22T12:29:36.556Z,988.55
2018-03-22T12:30:36.517Z,988.58
2018-03-22T12:32:33.377Z,988.57
2018-03-22T12:33:33.329Z,988.58
2018-03-22T12:35:30.186Z,988.53
2018-03-22T12:36:30.144Z,988.59
2018-03-22T12:38:24.526Z,988.52
2018-03-22T12:39:24.460Z,988.50
2018-03-22T12:41:18.818Z,988.55
2018-03-22T12:42:18.770Z,988.54
2018-03-22T12:44:13.152Z,988.56
2018-03-22T12:45:13.160Z,988.55
2018-03-22T12:47:07.466Z,988.52
2018-03-22T12:48:07.420Z,988.45
2018-03-22T12:50:01.787Z,988.43
2018-03-22T12:51:01.757Z,988.46
2018-03-22T12:52:58.607Z,988.46
2018-03-22T12:53:58.562Z,988.52
2018-03-22T12:55:55.431Z,988.48
2018-03-22T12:56:55.378Z,988.45
2018-03-22T12:58:49.733Z,988.47
2018-03-22T12:59:49.704Z,988.41
2018-03-22T13:01:44.055Z,988.41
2018-03-22T13:02:44.008Z,988.36
2018-03-22T13:04:40.878Z,988.37
2018-03-22T13:05:40.845Z,988.40
2018-03-22T13:07:37.718Z,988.38
2018-03-22T13:08:37.665Z,988.36
2018-03-22T13:10:34.513Z,988.32
2018-03-22T13:11:34.474Z,988.32
2018-03-22T13:13:31.347Z,988.31
2018-03-22T13:14:31.302Z,988.36
2018-03-22T13:16:28.178Z,988.28
2018-03-22T13:17:28.130Z,988.26
2018-03-22T13:19:22.478Z,988.31
2018-03-22T13:20:22.433Z,988.34
2018-03-22T13:22:16.802Z,988.24
2018-03-22T13:23:16.751Z,988.25
2018-03-22T13:25:11.123Z,988.25
2018-03-22T13:26:11.070Z,988.22
2018-03-22T13:28:07.943Z,988.30
2018-03-22T13:29:07.897Z,988.29
2018-03-22T13:31:04.763Z,988.31
2018-03-22T13:32:04.708Z,988.29
2018-03-22T13:33:59.907Z,988.26
2018-03-22T13:34:59.890Z,988.21
2018-03-22T13:36:54.220Z,988.25
2018-03-22T13:37:54.193Z,988.18
2018-03-22T13:39:48.576Z,988.25
2018-03-22T13:40:48.509Z,988.18
2018-03-22T13:42:42.892Z,988.19
2018-03-22T13:43:42.880Z,988.16
2018-03-22T13:45:36.780Z,988.12
2018-03-22T13:46:36.715Z,988.14
2018-03-22T13:48:31.070Z,988.07
2018-03-22T13:49:31.028Z,988.12
2018-03-22T13:51:24.880Z,988.09
2018-03-22T13:52:24.837Z,988.12
2018-03-22T13:54:19.243Z,988.09
2018-03-22T13:55:19.154Z,988.07
2018-03-22T13:57:13.509Z,988.09
2018-03-22T13:58:13.474Z,988.12
2018-03-22T14:00:10.323Z,988.11
2018-03-22T14:01:10.288Z,988.12
2018-03-22T14:03:04.681Z,988.05
2018-03-22T14:04:04.622Z,988.09
2018-03-22T14:06:01.492Z,988.03
2018-03-22T14:07:01.431Z,988.02
2018-03-22T14:08:55.800Z,988.00
2018-03-22T14:09:55.787Z,987.97
2018-03-22T14:11:52.628Z,987.95
2018-03-22T14:12:52.571Z,987.96
2018-03-22T14:14:46.939Z,987.98
2018-03-22T14:15:46.892Z,987.88
2018-03-22T14:17:41.271Z,987.90
2018-03-22T14:18:41.228Z,987.86
2018-03-22T14:20:38.104Z,987.92
2018-03-22T14:21:38.054Z,987.89
2018-03-22T14:23:34.973Z,987.90
2018-03-22T14:24:34.915Z,987.91
2018-03-22T14:26:29.350Z,987.94
2018-03-22T14:27:29.231Z,987.91
2018-03-22T14:29:26.100Z,987.90
2018-03-22T14:30:26.054Z,987.88
2018-03-22T14:32:22.901Z,987.84
2018-03-22T14:33:22.859Z,987.78
2018-03-22T14:35:19.712Z,987.75
2018-03-22T14:36:19.668Z,987.75
2018-03-22T14:38:16.538Z,987.72
2018-03-22T14:39:16.489Z,987.76
2018-03-22T14:41:10.928Z,987.78
2018-03-22T14:42:10.819Z,987.73
2018-03-22T14:44:05.178Z,987.69
2018-03-22T14:45:05.142Z,987.67
2018-03-22T14:47:01.995Z,987.66
2018-03-22T14:48:01.946Z,987.62
2018-03-22T14:49:58.815Z,987.59
2018-03-22T14:50:58.764Z,987.60
2018-03-22T14:52:55.642Z,987.62
2018-03-22T14:53:55.591Z,987.60
2018-03-22T14:55:49.982Z,987.61
2018-03-22T14:56:49.921Z,987.56
2018-03-22T14:58:46.778Z,987.54
2018-03-22T14:59:46.743Z,987.51
2018-03-22T15:01:44.477Z,987.45
2018-03-22T15:02:44.432Z,987.46
2018-03-22T15:04:41.322Z,987.51
2018-03-22T15:05:41.257Z,987.46
2018-03-22T15:07:35.610Z,987.43
2018-03-22T15:08:35.568Z,987.41
2018-03-22T15:10:33.326Z,987.38
2018-03-22T15:11:33.255Z,987.38
2018-03-22T15:13:30.117Z,987.39
2018-03-22T15:14:30.066Z,987.38
2018-03-22T15:16:24.432Z,987.38
2018-03-22T15:17:24.386Z,987.38
2018-03-22T15:19:18.739Z,987.37
2018-03-22T15:20:18.694Z,987.34
2018-03-22T15:22:13.068Z,987.35
2018-03-22T15:23:13.018Z,987.36
2018-03-22T15:25:07.381Z,987.38
2018-03-22T15:26:07.344Z,987.41
2018-03-22T15:28:01.706Z,987.45
2018-03-22T15:29:01.660Z,987.39
2018-03-22T15:30:58.538Z,987.37
2018-03-22T15:31:58.482Z,987.33
2018-03-22T15:33:55.379Z,987.31
2018-03-22T15:34:55.332Z,987.34
2018-03-22T15:36:49.687Z,987.36
2018-03-22T15:37:49.650Z,987.36
2018-03-22T15:39:46.512Z,987.35
2018-03-22T15:40:46.467Z,987.33
2018-03-22T15:42:43.344Z,987.34
2018-03-22T15:43:43.294Z,987.31
2018-03-22T15:45:40.142Z,987.27
2018-03-22T15:46:40.107Z,987.33
2018-03-22T15:48:37.817Z,987.30
2018-03-22T15:49:37.779Z,987.28
2018-03-22T15:51:35.546Z,987.24
2018-03-22T15:52:35.493Z,987.25
2018-03-22T15:54:32.351Z,987.22
2018-03-22T15:55:32.311Z,987.18
2018-03-22T15:57:29.173Z,987.24
2018-03-22T15:58:29.135Z,987.15
2018-03-22T16:00:23.483Z,987.19
2018-03-22T16:01:23.446Z,987.22
2018-03-22T16:03:20.317Z,987.20
2018-03-22T16:04:20.266Z,987.24
2018-03-22T16:06:17.985Z,987.28
2018-03-22T16:07:17.925Z,987.26
2018-03-22T16:09:14.775Z,987.31
2018-03-22T16:10:14.736Z,987.29
2018-03-22T16:12:11.614Z,987.26
2018-03-22T16:13:11.562Z,987.27
2018-03-22T16:15:08.418Z,987.34
2018-03-22T16:16:08.370Z,987.34
2018-03-22T16:18:06.125Z,987.33
2018-03-22T16:19:06.076Z,987.33
2018-03-22T16:21:02.935Z,987.35
2018-03-22T16:22:02.890Z,987.39
2018-03-22T16:23:59.755Z,987.38
2018-03-22T16:24:59.711Z,987.39
2018-03-22T16:26:54.098Z,987.33
2018-03-22T16:27:54.040Z,987.35
2018-03-22T16:29:48.424Z,987.34
2018-03-22T16:30:48.357Z,987.33
2018-03-22T16:32:42.722Z,987.34
2018-03-22T16:33:42.668Z,987.35
2018-03-22T16:35:37.030Z,987.35
2018-03-22T16:36:36.987Z,987.30
2018-03-22T16:38:31.352Z,987.35
2018-03-22T16:39:31.305Z,987.34
2018-03-22T16:41:25.676Z,987.32
2018-03-22T16:42:25.629Z,987.30
2018-03-22T16:44:20.000Z,987.34
2018-03-22T16:45:19.972Z,987.32
2018-03-22T16:47:14.312Z,987.34
2018-03-22T16:48:14.264Z,987.32
2018-03-22T16:50:08.634Z,987.29
2018-03-22T16:51:08.578Z,987.28
2018-03-22T16:53:05.481Z,987.29
2018-03-22T16:54:05.398Z,987.25
2018-03-22T16:56:02.314Z,987.25
2018-03-22T16:57:02.240Z,987.31
2018-03-22T16:58:59.933Z,987.25
2018-03-22T16:59:59.906Z,987.26
2018-03-22T17:01:56.737Z,987.26
2018-03-22T17:02:56.691Z,987.25
2018-03-22T17:04:53.551Z,987.25
2018-03-22T17:05:53.509Z,987.27
2018-03-22T17:07:50.374Z,987.23
2018-03-22T17:08:50.334Z,987.23
2018-03-22T17:10:47.187Z,987.23
2018-03-22T17:11:47.132Z,987.20
2018-03-22T17:13:44.875Z,987.21
2018-03-22T17:14:44.838Z,987.20
2018-03-22T17:16:41.696Z,987.24
2018-03-22T17:17:41.654Z,987.24
2018-03-22T17:19:36.004Z,987.25
2018-03-22T17:20:35.961Z,987.27
2018-03-22T17:22:31.197Z,987.31
2018-03-22T17:23:31.154Z,987.28
2018-03-22T17:25:25.521Z,987.23
2018-03-22T17:26:25.468Z,987.26
2018-03-22T17:28:23.219Z,987.28
2018-03-22T17:29:23.173Z,987.26
2018-03-22T17:31:17.533Z,987.26
2018-03-22T17:32:17.488Z,987.26
2018-03-22T17:34:11.872Z,987.26
2018-03-22T17:35:11.819Z,987.30
2018-03-22T17:37:08.676Z,987.30
2018-03-22T17:38:08.633Z,987.31
2018-03-22T17:40:05.497Z,987.27
2018-03-22T17:41:05.452Z,987.26
2018-03-22T17:43:02.313Z,987.23
2018-03-22T17:44:02.268Z,987.24
2018-03-22T17:45:59.143Z,987.21
2018-03-22T17:46:59.097Z,987.21
2018-03-22T17:48:54.480Z,987.24
2018-03-22T17:49:54.476Z,987.22
2018-03-22T17:51:51.301Z,987.22
2018-03-22T17:52:51.261Z,987.23
2018-03-22T17:54:48.135Z,987.20
2018-03-22T17:55:48.092Z,987.25
2018-03-22T17:57:44.956Z,987.21
2018-03-22T17:58:44.895Z,987.19
2018-03-22T18:00:39.252Z,987.22
2018-03-22T18:01:39.204Z,987.23
2018-03-22T18:03:33.571Z,987.22
2018-03-22T18:04:33.527Z,987.20
2018-03-22T18:06:27.895Z,987.21
2018-03-22T18:07:27.844Z,987.18
2018-03-22T18:09:22.220Z,987.21
2018-03-22T18:10:22.179Z,987.19
2018-03-22T18:12:19.041Z,987.21
2018-03-22T18:13:19.003Z,987.22
2018-03-22T18:15:15.883Z,987.23